Time;durP1;ratioP1;P1;durP2;ratioP2;P2;SDS_P1;SDS_P2;PMS_P1;PMS_P2;Temp;Humidity;BMP_temperature;BMP_pressure;BME280_temperature;BME280_humidity;BME280_pressure;Samples;Min_cycle;Max_cycle;Signal;HPM_P1;HPM_P2
2023/04/05 00:01:25;;;;;;;0.90;0.90;;;;;;;;;;4977630;28;20264;-60
2023/04/05 00:03:53;;;;;;;1.00;1.00;;;;;;;;;;4979744;28;20175;-60
2023/04/05 00:06:20;;;;;;;1.10;1.10;;;;;;;;;;4978776;28;20203;-60
2023/04/05 00:08:48;;;;;;;0.90;0.90;;;;;;;;;;4980614;28;20242;-60
2023/04/05 00:11:15;;;;;;;1.20;1.20;;;;;;;;;;4978938;28;20252;-60
2023/04/05 00:13:41;;;;;;;0.90;0.90;;;;;;;;;;4981573;28;20193;-60
2023/04/05 00:16:07;;;;;;;1.00;1.00;;;;;;;;;;4979887;28;20189;-60
2023/04/05 00:18:34;;;;;;;0.80;0.80;;;;;;;;;;4980435;28;20191;-60
2023/04/05 00:21:00;;;;;;;1.00;1.00;;;;;;;;;;4969874;28;20190;-61
2023/04/05 00:23:26;;;;;;;0.93;0.93;;;;;;;;;;4968694;28;20564;-61
2023/04/05 00:25:52;;;;;;;1.10;1.10;;;;;;;;;;4977174;28;20184;-60
2023/04/05 00:28:18;;;;;;;1.10;1.10;;;;;;;;;;4978177;28;20782;-60
2023/04/05 00:30:44;;;;;;;2.03;1.93;;;;;;;;;;4972833;28;20573;-60
2023/04/05 00:33:12;;;;;;;1.60;1.60;;;;;;;;;;4975374;28;20189;-60
2023/04/05 00:35:38;;;;;;;1.63;1.63;;;;;;;;;;4979685;28;20225;-60
2023/04/05 00:38:04;;;;;;;1.60;1.60;;;;;;;;;;4969623;28;20191;-60
2023/04/05 00:40:30;;;;;;;1.50;1.50;;;;;;;;;;4973517;28;20234;-60
2023/04/05 00:42:56;;;;;;;1.40;1.40;;;;;;;;;;4979461;28;20195;-59
2023/04/05 00:45:22;;;;;;;1.70;1.70;;;;;;;;;;4969399;28;20198;-60
2023/04/05 00:47:48;;;;;;;1.40;1.40;;;;;;;;;;4976357;28;20194;-61
2023/04/05 00:50:14;;;;;;;1.63;1.63;;;;;;;;;;4978048;28;20221;-60
2023/04/05 00:52:40;;;;;;;1.40;1.40;;;;;;;;;;4974684;28;20198;-60
2023/04/05 00:55:06;;;;;;;1.50;1.50;;;;;;;;;;4976012;28;20225;-60
2023/04/05 00:57:33;;;;;;;1.30;1.30;;;;;;;;;;4973287;28;20233;-60
2023/04/05 00:59:59;;;;;;;1.63;1.63;;;;;;;;;;4975865;28;20559;-60
2023/04/05 01:02:28;;;;;;;1.40;1.40;;;;;;;;;;4968782;28;20187;-59
2023/04/05 01:04:55;;;;;;;1.40;1.40;;;;;;;;;;4964607;28;20225;-59
2023/04/05 01:07:41;;;;;;;1.50;1.50;;;;;;;;;;4975899;28;20195;-60
2023/04/05 01:10:07;;;;;;;1.40;1.40;;;;;;;;;;4979248;28;20186;-59
2023/04/05 01:12:33;;;;;;;1.40;1.40;;;;;;;;;;4962519;28;20752;-59
2023/04/05 01:14:59;;;;;;;1.40;1.40;;;;;;;;;;4978145;28;20207;-59
2023/04/05 01:17:27;;;;;;;1.30;1.30;;;;;;;;;;4953539;28;20661;-59
2023/04/05 01:20:01;;;;;;;1.40;1.40;;;;;;;;;;4978571;28;20197;-59
2023/04/05 01:22:36;;;;;;;1.47;1.47;;;;;;;;;;4976854;28;20195;-59
2023/04/05 01:25:21;;;;;;;1.47;1.47;;;;;;;;;;4976215;28;20190;-60
2023/04/05 01:27:56;;;;;;;1.73;1.70;;;;;;;;;;4971358;28;20686;-59
2023/04/05 01:30:42;;;;;;;1.90;1.80;;;;;;;;;;4973216;28;20221;-59
2023/04/05 01:33:16;;;;;;;1.70;1.70;;;;;;;;;;4980098;28;20570;-59
2023/04/05 01:35:52;;;;;;;1.73;1.70;;;;;;;;;;4969725;28;20678;-59
2023/04/05 01:38:18;;;;;;;1.90;1.80;;;;;;;;;;4978147;28;20236;-59
2023/04/05 01:40:44;;;;;;;1.60;1.60;;;;;;;;;;4971631;28;20607;-60
2023/04/05 01:43:16;;;;;;;1.70;1.70;;;;;;;;;;4979424;28;20201;-60
2023/04/05 01:45:42;;;;;;;1.50;1.50;;;;;;;;;;4974466;28;20199;-59
2023/04/05 01:48:08;;;;;;;1.50;1.50;;;;;;;;;;4977683;28;20191;-59
2023/04/05 01:50:34;;;;;;;1.80;1.73;;;;;;;;;;4977114;28;20197;-59
2023/04/05 01:53:00;;;;;;;1.50;1.50;;;;;;;;;;4974628;28;20237;-60
2023/04/05 01:55:26;;;;;;;1.50;1.50;;;;;;;;;;4975499;28;20693;-60
2023/04/05 01:57:54;;;;;;;1.30;1.30;;;;;;;;;;4977876;28;20195;-59
2023/04/05 02:00:20;;;;;;;1.23;1.23;;;;;;;;;;4978055;28;20868;-59
2023/04/05 02:02:46;;;;;;;1.40;1.40;;;;;;;;;;4978805;28;20200;-59
2023/04/05 02:05:12;;;;;;;1.53;1.53;;;;;;;;;;4975534;28;20257;-60
2023/04/05 02:07:38;;;;;;;1.40;1.40;;;;;;;;;;4977241;28;20205;-59
2023/04/05 02:10:04;;;;;;;1.40;1.40;;;;;;;;;;4978127;28;20565;-59
2023/04/05 02:12:30;;;;;;;1.50;1.50;;;;;;;;;;4977415;28;20725;-60
2023/04/05 02:14:57;;;;;;;1.70;1.70;;;;;;;;;;4974346;28;20302;-59
2023/04/05 02:17:23;;;;;;;1.40;1.40;;;;;;;;;;4976358;28;20227;-59
2023/04/05 02:19:51;;;;;;;1.40;1.40;;;;;;;;;;4976566;28;20313;-59
2023/04/05 02:22:17;;;;;;;1.50;1.50;;;;;;;;;;4981945;28;20230;-59
2023/04/05 02:24:43;;;;;;;1.53;1.53;;;;;;;;;;4968300;28;20187;-60
2023/04/05 02:27:09;;;;;;;1.50;1.50;;;;;;;;;;4982453;28;20217;-59
2023/04/05 02:29:35;;;;;;;1.43;1.43;;;;;;;;;;4978161;28;20204;-60
2023/04/05 02:32:01;;;;;;;1.50;1.50;;;;;;;;;;4974949;28;20260;-59
2023/04/05 02:34:27;;;;;;;1.30;1.30;;;;;;;;;;4958535;28;20219;-59
2023/04/05 02:36:53;;;;;;;1.30;1.30;;;;;;;;;;4981212;28;20190;-59
2023/04/05 02:39:19;;;;;;;1.53;1.53;;;;;;;;;;4980868;28;20230;-60
2023/04/05 02:41:45;;;;;;;1.50;1.50;;;;;;;;;;4977354;28;20213;-59
2023/04/05 02:44:12;;;;;;;1.40;1.40;;;;;;;;;;4976656;28;20262;-59
2023/04/05 02:46:38;;;;;;;1.70;1.70;;;;;;;;;;4971995;28;20186;-59
2023/04/05 02:49:04;;;;;;;1.70;1.70;;;;;;;;;;4980113;28;20197;-59
2023/04/05 02:51:33;;;;;;;1.80;1.70;;;;;;;;;;4974242;28;20674;-59
2023/04/05 02:53:59;;;;;;;1.80;1.70;;;;;;;;;;4973258;28;20186;-59
2023/04/05 02:56:25;;;;;;;1.80;1.70;;;;;;;;;;4975366;28;20197;-59
2023/04/05 02:58:51;;;;;;;2.00;1.90;;;;;;;;;;4980813;28;20194;-59
2023/04/05 03:01:17;;;;;;;2.00;1.90;;;;;;;;;;4973251;28;20197;-59
2023/04/05 03:03:43;;;;;;;1.50;1.50;;;;;;;;;;4975750;28;20278;-61
2023/04/05 03:06:09;;;;;;;1.63;1.63;;;;;;;;;;4981819;28;20726;-60
2023/04/05 03:08:37;;;;;;;1.50;1.50;;;;;;;;;;4976673;28;20654;-59
2023/04/05 03:11:04;;;;;;;1.50;1.50;;;;;;;;;;4983518;28;20190;-62
2023/04/05 03:13:30;;;;;;;1.60;1.60;;;;;;;;;;4977999;28;20195;-59
2023/04/05 03:15:56;;;;;;;1.80;1.70;;;;;;;;;;4978720;28;20778;-59
2023/04/05 03:18:24;;;;;;;1.30;1.30;;;;;;;;;;4970871;28;20664;-59
2023/04/05 03:20:55;;;;;;;1.40;1.40;;;;;;;;;;4978321;28;20705;-59
2023/04/05 03:23:25;;;;;;;1.43;1.43;;;;;;;;;;4976976;28;21094;-59
2023/04/05 03:25:53;;;;;;;1.40;1.40;;;;;;;;;;4979036;28;20213;-58
2023/04/05 03:28:19;;;;;;;1.50;1.50;;;;;;;;;;4983156;28;20245;-59
2023/04/05 03:30:45;;;;;;;1.60;1.60;;;;;;;;;;4977042;28;20194;-59
2023/04/05 03:33:11;;;;;;;1.60;1.60;;;;;;;;;;4979790;28;20194;-59
2023/04/05 03:35:37;;;;;;;1.80;1.70;;;;;;;;;;4981543;28;20301;-59
2023/04/05 03:38:03;;;;;;;1.50;1.50;;;;;;;;;;4978299;28;20807;-59
2023/04/05 03:40:29;;;;;;;1.57;1.57;;;;;;;;;;4980648;28;20241;-59
2023/04/05 03:42:55;;;;;;;1.40;1.40;;;;;;;;;;4976541;28;20199;-59
2023/04/05 03:45:21;;;;;;;1.53;1.53;;;;;;;;;;4977674;28;20194;-60
2023/04/05 03:47:47;;;;;;;1.40;1.40;;;;;;;;;;4968909;28;20198;-59
2023/04/05 03:50:13;;;;;;;1.60;1.60;;;;;;;;;;4981623;28;20201;-59
2023/04/05 03:52:39;;;;;;;1.67;1.67;;;;;;;;;;4980177;28;20241;-59
2023/04/05 03:55:05;;;;;;;1.50;1.50;;;;;;;;;;4976860;28;20707;-59
2023/04/05 03:57:31;;;;;;;1.60;1.60;;;;;;;;;;4981227;28;20187;-59
2023/04/05 03:59:57;;;;;;;2.10;2.00;;;;;;;;;;4981205;28;20559;-59
2023/04/05 04:02:23;;;;;;;2.30;2.20;;;;;;;;;;4980291;28;20511;-59
2023/04/05 04:04:50;;;;;;;2.20;2.10;;;;;;;;;;4979213;28;20220;-59
2023/04/05 04:07:16;;;;;;;2.17;2.07;;;;;;;;;;4975503;28;20202;-59
2023/04/05 04:09:42;;;;;;;2.20;2.10;;;;;;;;;;4975603;28;20680;-59
2023/04/05 04:12:08;;;;;;;2.17;2.07;;;;;;;;;;4961432;28;20190;-59
2023/04/05 04:14:34;;;;;;;1.50;1.50;;;;;;;;;;4980193;28;20226;-59
2023/04/05 04:17:00;;;;;;;1.80;1.70;;;;;;;;;;4976494;28;20198;-59
2023/04/05 04:19:26;;;;;;;2.30;2.20;;;;;;;;;;4977583;28;20186;-59
2023/04/05 04:21:52;;;;;;;2.20;2.10;;;;;;;;;;4978719;28;20197;-59
2023/04/05 04:24:18;;;;;;;2.20;2.10;;;;;;;;;;4976865;28;20198;-59
2023/04/05 04:26:45;;;;;;;2.60;2.50;;;;;;;;;;4976111;28;20221;-60
2023/04/05 04:29:17;;;;;;;2.77;2.67;;;;;;;;;;4976549;28;20249;-60
2023/04/05 04:31:48;;;;;;;2.50;2.40;;;;;;;;;;4969754;28;20194;-59
2023/04/05 04:34:17;;;;;;;2.20;2.10;;;;;;;;;;4978253;28;20771;-59
2023/04/05 04:36:45;;;;;;;2.00;1.90;;;;;;;;;;4966619;28;20397;-59
2023/04/05 04:39:12;;;;;;;2.20;2.10;;;;;;;;;;4968157;28;20281;-59
2023/04/05 04:41:43;;;;;;;2.30;2.20;;;;;;;;;;4965491;28;20277;-59
2023/04/05 04:44:13;;;;;;;1.60;1.60;;;;;;;;;;4979106;28;20187;-60
2023/04/05 04:46:42;;;;;;;1.00;1.00;;;;;;;;;;4971972;28;20194;-59
2023/04/05 04:49:09;;;;;;;1.63;1.63;;;;;;;;;;4967456;28;20191;-59
2023/04/05 04:51:37;;;;;;;1.30;1.30;;;;;;;;;;4967949;28;20690;-60
2023/04/05 04:54:03;;;;;;;1.67;1.67;;;;;;;;;;4968736;28;20187;-60
2023/04/05 04:56:29;;;;;;;2.80;2.70;;;;;;;;;;4975238;28;20209;-60
2023/04/05 04:58:56;;;;;;;2.70;2.60;;;;;;;;;;4968235;28;20682;-59
2023/04/05 05:01:23;;;;;;;2.40;2.30;;;;;;;;;;4964326;28;20198;-60
2023/04/05 05:03:49;;;;;;;2.83;2.73;;;;;;;;;;4972216;28;20186;-59
2023/04/05 05:06:18;;;;;;;2.20;2.10;;;;;;;;;;4975511;28;20206;-60
2023/04/05 05:08:46;;;;;;;1.90;1.80;;;;;;;;;;4975683;28;20229;-59
2023/04/05 05:11:11;;;;;;;1.67;1.67;;;;;;;;;;4971991;28;20182;-60
2023/04/05 05:13:37;;;;;;;2.03;1.93;;;;;;;;;;4974856;28;20655;-64
2023/04/05 05:16:04;;;;;;;1.57;1.57;;;;;;;;;;4974551;28;20747;-60
2023/04/05 05:18:30;;;;;;;1.60;1.60;;;;;;;;;;4971991;28;20202;-60
2023/04/05 05:20:56;;;;;;;1.60;1.60;;;;;;;;;;4969036;28;20221;-60
2023/04/05 05:23:22;;;;;;;1.40;1.40;;;;;;;;;;4970083;28;20644;-59
2023/04/05 05:25:48;;;;;;;1.83;1.73;;;;;;;;;;4968697;28;20201;-60
2023/04/05 05:28:14;;;;;;;1.77;1.70;;;;;;;;;;4968065;28;20316;-60
2023/04/05 05:30:40;;;;;;;2.07;1.97;;;;;;;;;;4964390;28;20238;-59
2023/04/05 05:33:06;;;;;;;1.60;1.60;;;;;;;;;;4971885;28;20250;-60
2023/04/05 05:35:32;;;;;;;1.30;1.30;;;;;;;;;;4969869;28;20218;-59
2023/04/05 05:37:57;;;;;;;1.50;1.50;;;;;;;;;;4968372;28;20190;-60
2023/04/05 05:40:25;;;;;;;1.30;1.30;;;;;;;;;;4974539;28;20710;-59
2023/04/05 05:42:51;;;;;;;1.23;1.23;;;;;;;;;;4970540;28;20207;-60
2023/04/05 05:45:17;;;;;;;1.53;1.53;;;;;;;;;;4965102;28;20202;-60
2023/04/05 05:47:43;;;;;;;1.20;1.20;;;;;;;;;;4962209;28;20201;-61
2023/04/05 05:50:09;;;;;;;1.20;1.20;;;;;;;;;;4943508;28;20187;-59
2023/04/05 05:52:35;;;;;;;1.20;1.20;;;;;;;;;;4970226;28;20202;-61
2023/04/05 05:55:01;;;;;;;1.10;1.10;;;;;;;;;;4956881;28;20581;-60
2023/04/05 05:57:27;;;;;;;1.10;1.10;;;;;;;;;;4971229;28;20584;-61
2023/04/05 05:59:53;;;;;;;1.00;1.00;;;;;;;;;;4964385;28;20266;-59
2023/04/05 06:02:19;;;;;;;0.90;0.90;;;;;;;;;;4960464;28;20783;-60
2023/04/05 06:04:45;;;;;;;1.00;1.00;;;;;;;;;;4967473;28;20755;-59
2023/04/05 06:07:11;;;;;;;1.00;1.00;;;;;;;;;;4951001;28;20225;-60
2023/04/05 06:09:37;;;;;;;1.10;1.10;;;;;;;;;;4959815;28;20643;-60
2023/04/05 06:12:03;;;;;;;1.10;1.10;;;;;;;;;;4958156;28;20206;-59
2023/04/05 06:14:30;;;;;;;1.10;1.10;;;;;;;;;;4971537;28;20319;-60
2023/04/05 06:16:56;;;;;;;1.00;1.00;;;;;;;;;;4970875;28;20504;-60
2023/04/05 06:19:22;;;;;;;1.00;1.00;;;;;;;;;;4965997;28;21330;-60
2023/04/05 06:21:48;;;;;;;1.03;1.03;;;;;;;;;;4966103;28;20186;-59
2023/04/05 06:24:14;;;;;;;0.90;0.90;;;;;;;;;;4970364;28;20198;-60
2023/04/05 06:26:40;;;;;;;1.10;1.10;;;;;;;;;;4957792;28;20733;-60
2023/04/05 06:29:06;;;;;;;0.97;0.97;;;;;;;;;;4923597;28;20325;-60
2023/04/05 06:31:32;;;;;;;1.20;1.20;;;;;;;;;;4967751;28;20797;-60
2023/04/05 06:33:58;;;;;;;1.10;1.10;;;;;;;;;;4971112;28;20217;-60
2023/04/05 06:36:25;;;;;;;1.00;1.00;;;;;;;;;;4949530;28;20198;-60
2023/04/05 06:38:51;;;;;;;1.10;1.10;;;;;;;;;;4964249;28;20212;-61
2023/04/05 06:41:17;;;;;;;1.00;1.00;;;;;;;;;;4957099;28;20194;-60
2023/04/05 06:43:43;;;;;;;1.07;1.07;;;;;;;;;;4964691;28;20566;-60
2023/04/05 06:46:11;;;;;;;1.00;1.00;;;;;;;;;;4962565;28;20194;-60
2023/04/05 06:48:37;;;;;;;0.90;0.90;;;;;;;;;;4957174;28;20419;-60
2023/04/05 06:51:03;;;;;;;1.00;1.00;;;;;;;;;;4963443;28;20187;-62
2023/04/05 06:53:29;;;;;;;1.00;1.00;;;;;;;;;;4972877;28;20725;-62
2023/04/05 06:55:55;;;;;;;1.17;1.17;;;;;;;;;;4970778;28;20219;-62
2023/04/05 06:58:22;;;;;;;0.90;0.90;;;;;;;;;;4940607;28;20194;-62
2023/04/05 07:00:48;;;;;;;1.10;1.10;;;;;;;;;;4932070;28;20313;-63
2023/04/05 07:03:14;;;;;;;0.90;0.90;;;;;;;;;;4962995;28;20596;-65
2023/04/05 07:05:40;;;;;;;1.00;1.00;;;;;;;;;;4956986;28;20225;-64
2023/04/05 07:08:06;;;;;;;1.00;1.00;;;;;;;;;;4963259;28;20182;-64
2023/04/05 07:10:33;;;;;;;1.00;1.00;;;;;;;;;;4972066;28;20190;-65
2023/04/05 07:12:59;;;;;;;1.10;1.10;;;;;;;;;;4957842;28;20218;-63
2023/04/05 07:15:25;;;;;;;1.10;1.10;;;;;;;;;;4946473;28;20590;-63
2023/04/05 07:17:51;;;;;;;1.00;1.00;;;;;;;;;;4964059;28;20620;-63
2023/04/05 07:20:17;;;;;;;1.00;1.00;;;;;;;;;;4963254;28;20191;-62
2023/04/05 07:22:43;;;;;;;1.00;1.00;;;;;;;;;;4953760;28;20422;-61
2023/04/05 07:25:09;;;;;;;1.10;1.10;;;;;;;;;;4950308;28;20647;-62
2023/04/05 07:27:35;;;;;;;1.00;1.00;;;;;;;;;;4955491;28;20712;-61
2023/04/05 07:30:01;;;;;;;1.10;1.10;;;;;;;;;;4955254;28;20198;-63
2023/04/05 07:32:27;;;;;;;1.20;1.20;;;;;;;;;;4963670;28;20193;-63
2023/04/05 07:34:53;;;;;;;1.30;1.30;;;;;;;;;;4953644;28;20223;-63
2023/04/05 07:37:19;;;;;;;1.50;1.50;;;;;;;;;;4969745;28;20287;-63
2023/04/05 07:39:45;;;;;;;1.50;1.50;;;;;;;;;;4963846;28;20242;-64
2023/04/05 07:42:11;;;;;;;1.50;1.50;;;;;;;;;;4963067;28;20249;-67
2023/04/05 07:44:37;;;;;;;1.50;1.50;;;;;;;;;;4966296;28;20680;-64
2023/04/05 07:47:03;;;;;;;0.90;0.90;;;;;;;;;;4971533;28;20504;-62
2023/04/05 07:49:29;;;;;;;1.20;1.20;;;;;;;;;;4962312;28;20201;-63
2023/04/05 07:51:55;;;;;;;2.00;1.90;;;;;;;;;;4960672;28;20698;-63
2023/04/05 07:54:21;;;;;;;1.33;1.33;;;;;;;;;;4959228;28;20422;-63
2023/04/05 07:56:48;;;;;;;1.00;1.00;;;;;;;;;;4971116;28;20461;-65
2023/04/05 07:59:14;;;;;;;;;;;;;;;;;;4977038;28;20018;-65
2023/04/05 08:01:40;;;;;;;;;;;;;;;;;;4970543;28;19916;-65
2023/04/05 08:04:05;;;;;;;;;;;;;;;;;;4960351;28;20043;-65
2023/04/05 08:06:31;;;;;;;1.30;1.30;;;;;;;;;;4944081;28;20200;-64
2023/04/05 08:08:57;;;;;;;1.00;1.00;;;;;;;;;;4960042;28;20441;-65
2023/04/05 08:11:24;;;;;;;0.70;0.70;;;;;;;;;;4968165;28;20459;-65
2023/04/05 08:13:52;;;;;;;0.90;0.90;;;;;;;;;;4957599;28;20421;-64
2023/04/05 08:16:18;;;;;;;0.70;0.70;;;;;;;;;;4967400;28;20426;-65
2023/04/05 08:18:44;;;;;;;1.00;1.00;;;;;;;;;;4968450;28;20409;-65
2023/04/05 08:21:10;;;;;;;0.80;0.80;;;;;;;;;;4962216;28;20416;-66
2023/04/05 08:23:36;;;;;;;0.90;0.90;;;;;;;;;;4963811;28;21235;-65
2023/04/05 08:26:02;;;;;;;2.63;2.47;;;;;;;;;;4965412;28;20509;-67
2023/04/05 08:28:28;;;;;;;1.97;1.87;;;;;;;;;;4959848;28;20806;-65
2023/04/05 08:30:56;;;;;;;1.30;1.30;;;;;;;;;;4959467;28;20521;-65
2023/04/05 08:33:22;;;;;;;1.40;1.40;;;;;;;;;;4944055;28;20410;-64
2023/04/05 08:35:48;;;;;;;1.90;1.80;;;;;;;;;;4967630;28;20595;-64
2023/04/05 08:38:14;;;;;;;1.40;1.40;;;;;;;;;;4968126;28;20407;-64
2023/04/05 08:40:41;;;;;;;0.70;0.70;;;;;;;;;;4966575;28;21093;-64
2023/04/05 08:43:28;;;;;;;2.00;1.90;;;;;;;;;;4971107;28;20451;-62
2023/04/05 08:45:53;;;;;;;1.30;1.30;;;;;;;;;;4963619;28;20301;-60
2023/04/05 08:48:20;;;;;;;1.03;1.03;;;;;;;;;;4973876;28;20202;-62
2023/04/05 08:50:54;;;;;;;0.90;0.90;;;;;;;;;;4959382;28;20202;-62
2023/04/05 08:53:20;;;;;;;0.80;0.80;;;;;;;;;;4963483;28;20194;-62
2023/04/05 08:55:50;;;;;;;1.10;1.10;;;;;;;;;;4967770;28;20217;-61
2023/04/05 08:58:16;;;;;;;1.17;1.17;;;;;;;;;;4973186;28;20785;-61
2023/04/05 09:00:42;;;;;;;1.00;1.00;;;;;;;;;;4965270;28;20270;-62
2023/04/05 09:03:11;;;;;;;0.90;0.90;;;;;;;;;;4963825;28;20201;-61
2023/04/05 09:05:37;;;;;;;0.90;0.90;;;;;;;;;;4973781;28;20839;-62
2023/04/05 09:08:04;;;;;;;1.00;1.00;;;;;;;;;;4965196;28;20194;-62
2023/04/05 09:10:29;;;;;;;1.00;1.00;;;;;;;;;;4973064;28;20201;-62
2023/04/05 09:12:55;;;;;;;1.10;1.10;;;;;;;;;;4954018;28;20202;-62
2023/04/05 09:15:23;;;;;;;1.10;1.10;;;;;;;;;;4965511;28;20218;-61
2023/04/05 09:17:49;;;;;;;0.90;0.90;;;;;;;;;;4973370;28;20195;-62
2023/04/05 09:20:15;;;;;;;1.00;1.00;;;;;;;;;;4962941;28;20200;-62
2023/04/05 09:22:44;;;;;;;1.00;1.00;;;;;;;;;;4969661;28;20285;-62
2023/04/05 09:25:11;;;;;;;0.90;0.90;;;;;;;;;;4965383;28;20194;-61
2023/04/05 09:27:41;;;;;;;1.00;1.00;;;;;;;;;;4967909;28;20202;-62
2023/04/05 09:30:08;;;;;;;0.90;0.90;;;;;;;;;;4958174;28;20195;-62
2023/04/05 09:32:34;;;;;;;0.80;0.80;;;;;;;;;;4938805;28;20203;-61
2023/04/05 09:35:02;;;;;;;1.00;1.00;;;;;;;;;;4959376;28;20263;-62
2023/04/05 09:37:28;;;;;;;0.77;0.77;;;;;;;;;;4963802;28;20202;-61
2023/04/05 09:40:01;;;;;;;1.00;1.00;;;;;;;;;;4960168;28;21204;-62
2023/04/05 09:42:27;;;;;;;1.10;1.10;;;;;;;;;;4957764;28;20647;-62
2023/04/05 09:44:53;;;;;;;1.20;1.20;;;;;;;;;;4968098;28;20217;-62
2023/04/05 09:47:20;;;;;;;1.10;1.10;;;;;;;;;;4959753;28;20663;-62
2023/04/05 09:49:46;;;;;;;1.15;1.15;;;;;;;;;;4967568;28;20621;-61
2023/04/05 09:52:19;;;;;;;1.10;1.10;;;;;;;;;;4963839;28;20205;-61
2023/04/05 09:54:45;;;;;;;1.17;1.17;;;;;;;;;;4965861;28;20215;-61
2023/04/05 09:57:11;;;;;;;0.80;0.80;;;;;;;;;;4970028;28;20684;-61
2023/04/05 09:59:38;;;;;;;1.10;1.10;;;;;;;;;;4959364;28;20194;-61
2023/04/05 10:02:05;;;;;;;1.20;1.20;;;;;;;;;;4959310;28;20266;-61
2023/04/05 10:04:40;;;;;;;1.10;1.10;;;;;;;;;;4958961;28;20202;-61
2023/04/05 10:07:07;;;;;;;1.10;1.10;;;;;;;;;;4962605;28;20233;-62
2023/04/05 10:09:33;;;;;;;1.10;1.10;;;;;;;;;;4958060;28;20195;-71
2023/04/05 10:11:59;;;;;;;1.00;1.00;;;;;;;;;;4958049;28;20187;-72
2023/04/05 10:14:25;;;;;;;1.10;1.10;;;;;;;;;;4943038;28;21206;-72
2023/04/05 10:17:21;;;;;;;1.10;1.10;;;;;;;;;;4953942;28;20198;-75
2023/04/05 10:19:54;;;;;;;1.00;1.00;;;;;;;;;;4950453;28;20745;-74
2023/04/05 10:22:24;;;;;;;0.98;0.98;;;;;;;;;;4957755;28;20695;-74
2023/04/05 10:24:55;;;;;;;1.00;1.00;;;;;;;;;;4945976;28;20269;-74
2023/04/05 10:27:27;;;;;;;1.10;1.10;;;;;;;;;;4943274;28;20185;-73
2023/04/05 10:29:58;;;;;;;1.10;1.10;;;;;;;;;;4958594;28;20182;-74
2023/04/05 10:32:30;;;;;;;1.10;1.10;;;;;;;;;;4936763;28;20206;-75
2023/04/05 10:35:09;;;;;;;1.00;1.00;;;;;;;;;;4941637;28;20206;-73
2023/04/05 10:37:39;;;;;;;1.00;1.00;;;;;;;;;;4948861;28;20195;-71
2023/04/05 10:40:06;;;;;;;1.00;1.00;;;;;;;;;;4943747;28;20235;-72
2023/04/05 10:42:38;;;;;;;1.00;1.00;;;;;;;;;;4944410;28;21432;-73
2023/04/05 10:45:04;;;;;;;0.90;0.90;;;;;;;;;;4936151;28;20191;-65
2023/04/05 10:47:31;;;;;;;1.00;1.00;;;;;;;;;;4946607;28;21980;-67
2023/04/05 10:49:57;;;;;;;0.90;0.90;;;;;;;;;;4950545;28;20202;-68
2023/04/05 10:52:23;;;;;;;1.00;1.00;;;;;;;;;;4936828;28;21726;-67
2023/04/05 10:54:49;;;;;;;0.90;0.90;;;;;;;;;;4919103;28;20214;-69
2023/04/05 10:57:15;;;;;;;0.90;0.90;;;;;;;;;;4915585;28;20272;-61
2023/04/05 10:59:44;;;;;;;0.98;0.98;;;;;;;;;;4928708;28;20617;-58
2023/04/05 11:02:10;;;;;;;0.80;0.80;;;;;;;;;;4922197;28;20221;-61
2023/04/05 11:04:36;;;;;;;0.90;0.90;;;;;;;;;;4924595;28;20282;-62
2023/04/05 11:07:18;;;;;;;0.90;0.90;;;;;;;;;;4940175;28;20680;-62
2023/04/05 11:09:51;;;;;;;0.90;0.90;;;;;;;;;;4939877;28;20545;-62
2023/04/05 11:12:17;;;;;;;0.85;0.85;;;;;;;;;;4938208;28;20203;-61
2023/04/05 11:14:43;;;;;;;0.82;0.82;;;;;;;;;;4946712;28;20218;-61
2023/04/05 11:17:25;;;;;;;0.90;0.90;;;;;;;;;;4950105;28;20187;-62
2023/04/05 11:19:51;;;;;;;0.80;0.80;;;;;;;;;;4946652;28;20199;-62
2023/04/05 11:22:24;;;;;;;0.80;0.80;;;;;;;;;;4945467;28;20677;-60
2023/04/05 11:24:52;;;;;;;0.80;0.80;;;;;;;;;;4938373;28;20736;-62
2023/04/05 11:27:19;;;;;;;0.77;0.77;;;;;;;;;;4949876;28;20187;-59
2023/04/05 11:29:49;;;;;;;0.80;0.80;;;;;;;;;;4947685;28;20289;-62
2023/04/05 11:32:15;;;;;;;0.80;0.80;;;;;;;;;;4953842;28;20195;-62
2023/04/05 11:34:41;;;;;;;0.80;0.80;;;;;;;;;;4938130;28;20215;-62
2023/04/05 11:37:07;;;;;;;0.80;0.80;;;;;;;;;;4946376;28;20187;-62
2023/04/05 11:39:35;;;;;;;0.80;0.80;;;;;;;;;;4950578;28;20295;-62
2023/04/05 11:42:02;;;;;;;0.80;0.80;;;;;;;;;;4965820;28;20189;-63
2023/04/05 11:44:29;;;;;;;0.80;0.80;;;;;;;;;;4976234;28;20277;-63
2023/04/05 11:46:55;;;;;;;0.80;0.80;;;;;;;;;;4964446;28;20754;-60
2023/04/05 11:49:22;;;;;;;0.80;0.80;;;;;;;;;;4967246;28;20190;-61
2023/04/05 11:51:48;;;;;;;0.80;0.80;;;;;;;;;;4962076;28;20287;-61
2023/04/05 11:54:14;;;;;;;0.82;0.82;;;;;;;;;;4960031;28;20679;-61
2023/04/05 11:56:41;;;;;;;0.80;0.80;;;;;;;;;;4969998;28;21047;-61
2023/04/05 11:59:07;;;;;;;0.80;0.80;;;;;;;;;;4969303;28;20213;-61
2023/04/05 12:01:33;;;;;;;0.80;0.80;;;;;;;;;;4971598;28;20182;-61
2023/04/05 12:03:59;;;;;;;0.80;0.80;;;;;;;;;;4963824;28;20599;-61
2023/04/05 12:06:25;;;;;;;0.80;0.80;;;;;;;;;;4967179;28;20652;-61
2023/04/05 12:08:52;;;;;;;0.80;0.80;;;;;;;;;;4949774;28;20647;-61
2023/04/05 12:11:28;;;;;;;0.80;0.80;;;;;;;;;;4964505;28;20198;-61
2023/04/05 12:13:58;;;;;;;0.80;0.80;;;;;;;;;;4962018;28;20186;-61
2023/04/05 12:16:24;;;;;;;0.80;0.80;;;;;;;;;;4960557;28;20304;-61
2023/04/05 12:18:53;;;;;;;0.80;0.80;;;;;;;;;;4969355;28;20203;-60
2023/04/05 12:21:19;;;;;;;0.80;0.80;;;;;;;;;;4968408;28;20194;-60
2023/04/05 12:23:45;;;;;;;0.80;0.80;;;;;;;;;;4968181;28;20201;-60
2023/04/05 12:26:11;;;;;;;0.90;0.90;;;;;;;;;;4953909;28;20195;-62
2023/04/05 12:28:54;;;;;;;0.80;0.80;;;;;;;;;;4966460;28;22436;-62
2023/04/05 12:31:39;;;;;;;0.80;0.80;;;;;;;;;;4962840;28;20902;-60
2023/04/05 12:34:06;;;;;;;0.80;0.80;;;;;;;;;;4963646;28;20233;-62
2023/04/05 12:36:32;;;;;;;0.80;0.80;;;;;;;;;;4951229;28;20268;-62
2023/04/05 12:38:58;;;;;;;0.80;0.80;;;;;;;;;;4949904;28;20194;-60
2023/04/05 12:41:28;;;;;;;0.80;0.80;;;;;;;;;;4972082;28;20191;-62
2023/04/05 12:44:00;;;;;;;0.80;0.80;;;;;;;;;;4973475;28;20190;-62
2023/04/05 12:46:42;;;;;;;0.82;0.82;;;;;;;;;;4964590;28;20195;-62
2023/04/05 12:49:11;;;;;;;0.80;0.80;;;;;;;;;;4976207;28;20733;-62
2023/04/05 12:51:37;;;;;;;0.75;0.75;;;;;;;;;;4972454;28;20179;-62
2023/04/05 12:54:03;;;;;;;0.80;0.80;;;;;;;;;;4976570;28;20189;-61
2023/04/05 12:56:30;;;;;;;0.80;0.80;;;;;;;;;;4968602;28;20447;-61
2023/04/05 12:58:56;;;;;;;0.80;0.80;;;;;;;;;;4962036;28;20282;-65
2023/04/05 13:01:22;;;;;;;0.75;0.75;;;;;;;;;;4971804;28;20541;-65
2023/04/05 13:03:48;;;;;;;0.77;0.77;;;;;;;;;;4975403;28;20675;-64
2023/04/05 13:06:14;;;;;;;0.80;0.80;;;;;;;;;;4971655;28;20549;-64
2023/04/05 13:08:40;;;;;;;0.90;0.90;;;;;;;;;;4963660;28;20674;-63
2023/04/05 13:11:06;;;;;;;1.60;1.60;;;;;;;;;;4975944;28;20194;-65
2023/04/05 13:13:33;;;;;;;1.70;1.70;;;;;;;;;;4955080;28;20803;-66
2023/04/05 13:15:59;;;;;;;1.60;1.60;;;;;;;;;;4965985;28;20250;-66
2023/04/05 13:18:25;;;;;;;1.90;1.80;;;;;;;;;;4967080;28;20269;-66
2023/04/05 13:20:51;;;;;;;1.90;1.80;;;;;;;;;;4959942;28;20678;-64
2023/04/05 13:23:16;;;;;;;2.08;1.98;;;;;;;;;;4956862;28;20555;-66
2023/04/05 13:25:44;;;;;;;1.92;1.83;;;;;;;;;;4974362;28;20205;-66
2023/04/05 13:28:10;;;;;;;1.90;1.80;;;;;;;;;;4951774;28;20734;-65
2023/04/05 13:30:36;;;;;;;2.20;2.10;;;;;;;;;;4968433;28;20187;-66
2023/04/05 13:33:05;;;;;;;2.00;1.90;;;;;;;;;;4965196;28;20198;-66
2023/04/05 13:35:31;;;;;;;2.03;1.92;;;;;;;;;;4969854;28;20226;-66
2023/04/05 13:37:57;;;;;;;1.95;1.85;;;;;;;;;;4972112;28;20187;-66
2023/04/05 13:40:23;;;;;;;2.20;2.10;;;;;;;;;;4969930;28;20396;-65
2023/04/05 13:42:49;;;;;;;2.30;2.20;;;;;;;;;;4972480;28;20202;-66
2023/04/05 13:45:15;;;;;;;2.30;2.20;;;;;;;;;;4967115;28;21031;-65
2023/04/05 13:47:41;;;;;;;2.10;2.00;;;;;;;;;;4973212;28;20683;-64
2023/04/05 13:50:07;;;;;;;2.10;2.00;;;;;;;;;;4960334;28;20260;-66
2023/04/05 13:52:33;;;;;;;2.00;1.90;;;;;;;;;;4971680;28;20202;-65
2023/04/05 13:54:59;;;;;;;2.30;2.20;;;;;;;;;;4978465;28;20590;-65
2023/04/05 13:57:25;;;;;;;2.30;2.20;;;;;;;;;;4970419;28;20644;-65
2023/04/05 13:59:51;;;;;;;2.00;1.90;;;;;;;;;;4965332;28;20190;-65
2023/04/05 14:02:19;;;;;;;1.60;1.60;;;;;;;;;;4970646;28;20273;-65
2023/04/05 14:04:45;;;;;;;2.00;1.90;;;;;;;;;;4962433;28;20232;-65
2023/04/05 14:07:11;;;;;;;1.40;1.40;;;;;;;;;;4957623;28;20206;-65
2023/04/05 14:09:37;;;;;;;1.70;1.70;;;;;;;;;;4962632;28;20557;-65
2023/04/05 14:12:03;;;;;;;1.40;1.40;;;;;;;;;;4965710;28;20191;-66
2023/04/05 14:14:29;;;;;;;0.90;0.90;;;;;;;;;;4956589;28;20199;-66
2023/04/05 14:16:55;;;;;;;1.30;1.30;;;;;;;;;;4960206;28;20194;-66
2023/04/05 14:19:21;;;;;;;1.10;1.10;;;;;;;;;;4959654;28;20552;-65
2023/04/05 14:21:47;;;;;;;1.40;1.40;;;;;;;;;;4957693;28;20201;-68
2023/04/05 14:24:13;;;;;;;1.00;1.00;;;;;;;;;;4958825;28;20676;-64
2023/04/05 14:26:39;;;;;;;1.20;1.20;;;;;;;;;;4962726;28;20809;-65
2023/04/05 14:29:05;;;;;;;1.40;1.40;;;;;;;;;;4957760;28;20191;-66
2023/04/05 14:31:31;;;;;;;2.00;1.90;;;;;;;;;;4952185;28;20678;-65
2023/04/05 14:33:58;;;;;;;1.87;1.77;;;;;;;;;;4950869;28;20191;-65
2023/04/05 14:36:25;;;;;;;1.20;1.20;;;;;;;;;;4945834;28;20703;-64
2023/04/05 14:38:51;;;;;;;1.70;1.70;;;;;;;;;;4964855;28;20583;-66
2023/04/05 14:41:18;;;;;;;2.00;1.90;;;;;;;;;;4960205;28;20225;-65
2023/04/05 14:43:44;;;;;;;1.20;1.20;;;;;;;;;;4949119;28;20910;-66